Time;durP1;ratioP1;P1;durP2;ratioP2;P2;SDS_P1;SDS_P2;PMS_P1;PMS_P2;Temp;Humidity;BMP_temperature;BMP_pressure;BME280_temperature;BME280_humidity;BME280_pressure;Samples;Min_cycle;Max_cycle;Signal;HPM_P1;HPM_P2
2022/07/18 00:02:00;;;;;;;4.30;2.35;;;15.90;99.90;;;;;;5114681;28;20676;-69
2022/07/18 00:04:27;;;;;;;6.57;2.70;;;15.90;99.90;;;;;;5114652;28;20263;-69
2022/07/18 00:06:53;;;;;;;2.97;2.33;;;15.80;99.90;;;;;;5115702;28;20569;-69
2022/07/18 00:09:19;;;;;;;5.57;2.33;;;15.70;99.90;;;;;;5115678;28;20149;-69
2022/07/18 00:11:45;;;;;;;2.15;1.95;;;15.60;99.90;;;;;;5115573;27;20188;-70
2022/07/18 00:14:11;;;;;;;3.67;2.15;;;15.50;99.90;;;;;;5115298;28;20200;-69
2022/07/18 00:16:38;;;;;;;2.67;2.13;;;15.50;99.90;;;;;;5115546;28;20203;-69
2022/07/18 00:19:05;;;;;;;3.92;2.40;;;15.40;99.90;;;;;;5115283;28;20275;-69
2022/07/18 00:21:32;;;;;;;3.33;2.42;;;15.40;99.90;;;;;;5115495;28;20196;-69
2022/07/18 00:23:57;;;;;;;2.72;2.53;;;15.40;99.90;;;;;;5113975;28;20249;-70
2022/07/18 00:26:23;;;;;;;3.00;2.40;;;15.40;99.90;;;;;;5115473;28;20256;-69
2022/07/18 00:28:49;;;;;;;3.97;2.20;;;15.40;99.90;;;;;;5115030;28;20263;-69
2022/07/18 00:31:15;;;;;;;3.78;2.30;;;15.40;99.90;;;;;;5115273;28;20192;-69
2022/07/18 00:33:40;;;;;;;6.30;2.72;;;15.40;99.90;;;;;;5113869;28;20204;-69
2022/07/18 00:36:06;;;;;;;3.72;2.28;;;15.40;99.90;;;;;;5115417;28;20177;-71
2022/07/18 00:38:32;;;;;;;3.20;2.63;;;15.40;99.90;;;;;;5114250;28;20543;-71
2022/07/18 00:40:58;;;;;;;5.75;2.38;;;15.40;99.90;;;;;;5114311;28;20188;-71
2022/07/18 00:43:24;;;;;;;3.00;2.40;;;15.40;99.90;;;;;;5115181;28;20321;-71
2022/07/18 00:45:52;;;;;;;2.63;2.28;;;15.30;99.90;;;;;;5114138;28;20172;-71
2022/07/18 00:48:18;;;;;;;5.25;2.20;;;15.30;99.90;;;;;;5114032;28;20229;-71
2022/07/18 00:50:44;;;;;;;4.57;2.35;;;15.30;99.90;;;;;;5115019;28;20208;-71
2022/07/18 00:53:10;;;;;;;4.13;2.20;;;15.20;99.90;;;;;;5115592;28;20208;-71
2022/07/18 00:55:40;;;;;;;3.65;2.55;;;15.20;99.90;;;;;;5115485;28;20200;-71
2022/07/18 00:58:08;;;;;;;3.28;2.25;;;15.20;99.90;;;;;;5115183;28;20196;-71
2022/07/18 01:03:18;;;;;;;4.65;2.58;;;15.10;99.90;;;;;;5115251;28;20164;-71
2022/07/18 01:05:44;;;;;;;3.67;2.42;;;15.10;99.90;;;;;;5115019;28;20180;-71
2022/07/18 01:08:10;;;;;;;7.32;2.65;;;15.10;99.90;;;;;;5113680;28;20184;-71
2022/07/18 01:10:35;;;;;;;4.07;2.60;;;15.00;99.90;;;;;;5115055;28;20207;-71
2022/07/18 01:13:01;;;;;;;7.88;2.92;;;15.00;99.90;;;;;;5115062;28;20249;-71
2022/07/18 01:15:27;;;;;;;3.78;2.50;;;15.00;99.90;;;;;;5113786;28;20172;-71
2022/07/18 01:17:53;;;;;;;4.68;2.70;;;15.00;99.90;;;;;;5114847;28;20195;-71
2022/07/18 01:20:19;;;;;;;5.82;3.25;;;14.90;99.90;;;;;;5098002;28;20181;-71
2022/07/18 01:22:44;;;;;;;4.95;2.58;;;14.80;99.90;;;;;;5094479;28;20622;-71
2022/07/18 01:25:11;;;;;;;4.18;2.55;;;14.80;99.90;;;;;;5094744;28;20177;-71
2022/07/18 01:27:37;;;;;;;3.90;2.30;;;14.80;99.90;;;;;;5094432;28;20217;-71
2022/07/18 01:30:04;;;;;;;5.53;2.30;;;14.70;99.90;;;;;;5094042;28;20177;-71
2022/07/18 01:32:31;;;;;;;6.95;2.85;;;14.70;99.90;;;;;;5093077;28;20184;-71
2022/07/18 01:34:56;;;;;;;4.05;2.60;;;14.60;99.90;;;;;;5093707;28;20193;-71
2022/07/18 01:37:22;;;;;;;5.55;2.40;;;14.60;99.90;;;;;;5094794;28;20169;-71
2022/07/18 01:39:48;;;;;;;4.13;2.78;;;14.60;99.90;;;;;;5094042;28;20174;-71
2022/07/18 01:42:15;;;;;;;5.63;2.60;;;14.60;99.90;;;;;;5094046;28;20189;-71
2022/07/18 01:44:41;;;;;;;5.72;3.17;;;14.60;99.90;;;;;;5093106;28;20188;-71
2022/07/18 01:47:10;;;;;;;4.35;3.00;;;14.60;99.90;;;;;;5094372;28;20181;-71
2022/07/18 01:49:36;;;;;;;6.05;2.65;;;14.60;99.90;;;;;;5105021;28;20641;-71
2022/07/18 01:52:03;;;;;;;6.72;3.13;;;14.60;99.90;;;;;;5114259;28;20200;-71
2022/07/18 01:54:32;;;;;;;6.28;2.50;;;14.60;99.90;;;;;;5113222;28;20204;-71
2022/07/18 01:56:59;;;;;;;4.13;2.47;;;14.50;99.90;;;;;;5113153;28;20179;-71
2022/07/18 01:59:26;;;;;;;2.53;2.13;;;14.50;99.90;;;;;;5114433;28;20629;-71
2022/07/18 02:01:52;;;;;;;4.45;2.45;;;14.40;99.90;;;;;;5114560;28;20191;-71
2022/07/18 02:04:19;;;;;;;5.90;2.85;;;14.40;99.90;;;;;;5114533;28;20548;-71
2022/07/18 02:06:45;;;;;;;3.85;2.28;;;14.40;99.90;;;;;;5115723;28;20153;-71
2022/07/18 02:09:11;;;;;;;2.70;2.20;;;14.30;99.90;;;;;;5113591;28;20184;-71
2022/07/18 02:11:37;;;;;;;6.07;2.78;;;14.30;99.90;;;;;;5113457;28;20192;-71
2022/07/18 02:14:04;;;;;;;3.30;2.60;;;14.20;99.90;;;;;;5114550;28;20192;-71
2022/07/18 02:16:31;;;;;;;4.22;2.30;;;14.10;99.90;;;;;;5113484;28;20200;-71
2022/07/18 02:18:57;;;;;;;3.65;2.45;;;14.10;99.90;;;;;;5108992;28;20242;-70
2022/07/18 02:21:23;;;;;;;4.03;2.90;;;14.00;99.90;;;;;;5094955;28;20196;-71
2022/07/18 02:23:50;;;;;;;3.65;2.30;;;14.10;99.90;;;;;;5094436;28;20264;-70
2022/07/18 02:26:17;;;;;;;4.38;2.45;;;14.00;99.90;;;;;;5094402;28;20181;-71
2022/07/18 02:28:42;;;;;;;2.25;2.03;;;14.00;99.90;;;;;;5093920;28;20184;-71
2022/07/18 02:31:08;;;;;;;4.30;2.60;;;14.00;99.90;;;;;;5094051;28;20268;-71
2022/07/18 02:33:34;;;;;;;4.65;2.90;;;14.00;99.90;;;;;;5093828;28;20593;-71
2022/07/18 02:36:00;;;;;;;4.32;2.95;;;13.90;99.90;;;;;;5093823;28;20173;-71
2022/07/18 02:38:26;;;;;;;5.40;2.38;;;13.90;99.90;;;;;;5093956;28;20236;-71
2022/07/18 02:40:52;;;;;;;4.07;2.72;;;13.90;99.90;;;;;;5092505;28;20204;-71
2022/07/18 02:43:18;;;;;;;4.05;2.75;;;13.80;99.90;;;;;;5093540;28;20169;-71
2022/07/18 02:45:43;;;;;;;4.32;2.70;;;13.70;99.90;;;;;;5093633;28;20178;-71
2022/07/18 02:48:09;;;;;;;3.83;2.45;;;13.70;99.90;;;;;;5097493;28;20219;-71
2022/07/18 02:50:35;;;;;;;3.60;2.60;;;13.70;99.90;;;;;;5097203;28;20200;-71
2022/07/18 02:53:01;;;;;;;3.42;2.65;;;13.70;99.90;;;;;;5096193;28;20191;-72
2022/07/18 02:55:27;;;;;;;5.30;2.70;;;13.70;99.90;;;;;;5095860;28;20264;-70
2022/07/18 02:57:53;;;;;;;6.10;2.70;;;13.70;99.90;;;;;;5096590;28;20195;-70
2022/07/18 03:00:19;;;;;;;4.10;2.88;;;13.70;99.90;;;;;;5096864;28;20626;-71
2022/07/18 03:02:45;;;;;;;7.80;2.65;;;13.70;99.90;;;;;;5096814;28;20538;-70
2022/07/18 03:05:12;;;;;;;5.55;2.53;;;13.60;99.90;;;;;;5096687;28;20265;-70
2022/07/18 03:07:38;;;;;;;3.42;2.60;;;13.70;99.90;;;;;;5096597;28;20170;-70
2022/07/18 03:10:05;;;;;;;5.70;2.60;;;13.60;99.90;;;;;;5095179;28;20173;-70
2022/07/18 03:12:31;;;;;;;4.05;2.70;;;13.50;99.90;;;;;;5096533;28;20241;-70
2022/07/18 03:14:57;;;;;;;6.50;3.03;;;13.40;99.90;;;;;;5095015;28;20204;-70
2022/07/18 03:17:22;;;;;;;2.97;2.67;;;13.40;99.90;;;;;;5095131;28;20173;-70
2022/07/18 03:19:48;;;;;;;3.97;2.60;;;13.30;99.90;;;;;;5095056;28;20232;-70
2022/07/18 03:22:14;;;;;;;3.97;2.65;;;13.30;99.90;;;;;;5094968;28;20692;-70
2022/07/18 03:24:40;;;;;;;3.80;2.55;;;13.20;99.90;;;;;;5096242;28;20177;-71
2022/07/18 03:27:05;;;;;;;3.45;2.60;;;13.20;99.90;;;;;;5096209;28;20182;-70
2022/07/18 03:29:31;;;;;;;5.90;3.05;;;13.00;99.90;;;;;;5095984;28;20177;-70
2022/07/18 03:31:57;;;;;;;4.38;2.60;;;13.00;99.90;;;;;;5096146;28;20197;-70
2022/07/18 03:34:23;;;;;;;4.05;2.72;;;13.10;99.90;;;;;;5096072;28;20567;-70
2022/07/18 03:36:48;;;;;;;2.70;2.42;;;13.00;99.90;;;;;;5096583;28;20238;-70
2022/07/18 03:39:14;;;;;;;5.78;2.53;;;13.00;99.90;;;;;;5094822;28;20207;-70
2022/07/18 03:41:40;;;;;;;5.00;2.45;;;13.10;99.90;;;;;;5096109;28;20185;-70
2022/07/18 03:44:07;;;;;;;3.10;2.67;;;13.10;99.90;;;;;;5095635;28;20169;-70
2022/07/18 03:46:33;;;;;;;3.90;2.72;;;13.00;99.90;;;;;;5096513;28;20183;-70
2022/07/18 03:48:59;;;;;;;3.88;2.85;;;13.00;99.90;;;;;;5095928;28;20192;-70
2022/07/18 03:51:25;;;;;;;5.80;3.10;;;13.00;99.90;;;;;;5094507;28;20192;-70
2022/07/18 03:53:50;;;;;;;3.45;2.78;;;13.10;99.90;;;;;;5096773;28;20193;-71
2022/07/18 03:56:16;;;;;;;5.20;3.00;;;13.10;99.90;;;;;;5097852;28;20191;-71
2022/07/18 03:58:43;;;;;;;5.00;2.75;;;13.00;99.90;;;;;;5094739;28;20187;-70
2022/07/18 04:01:09;;;;;;;5.75;3.00;;;13.00;99.90;;;;;;5097826;28;20598;-69
2022/07/18 04:03:35;;;;;;;6.15;2.75;;;13.00;99.90;;;;;;5095997;28;20181;-69
2022/07/18 04:06:00;;;;;;;6.63;3.75;;;13.10;99.90;;;;;;5096442;28;20188;-69
2022/07/18 04:08:26;;;;;;;5.00;2.67;;;13.10;99.90;;;;;;5094301;28;20177;-69
2022/07/18 04:10:52;;;;;;;3.17;2.60;;;13.10;99.90;;;;;;5095371;28;20196;-69
2022/07/18 04:13:18;;;;;;;5.90;2.90;;;13.10;99.90;;;;;;5095482;28;20200;-70
2022/07/18 04:15:44;;;;;;;3.53;2.40;;;13.20;99.90;;;;;;5094072;28;20185;-70
2022/07/18 04:18:10;;;;;;;5.35;3.03;;;13.20;99.90;;;;;;5094958;28;20238;-70
2022/07/18 04:20:36;;;;;;;5.45;3.30;;;13.20;99.90;;;;;;5095342;28;20193;-70
2022/07/18 04:23:04;;;;;;;5.00;2.70;;;13.20;99.90;;;;;;5095301;28;20176;-70
2022/07/18 04:25:38;;;;;;;8.73;3.38;;;13.20;99.90;;;;;;5095123;28;20158;-70
2022/07/18 04:28:04;;;;;;;5.65;3.17;;;13.20;99.90;;;;;;5095161;28;20238;-70
2022/07/18 04:30:31;;;;;;;5.07;3.20;;;13.30;99.90;;;;;;5094902;28;20203;-71
2022/07/18 04:32:57;;;;;;;5.60;2.95;;;13.30;99.90;;;;;;5095555;28;20169;-70
2022/07/18 04:35:23;;;;;;;5.30;2.70;;;13.30;99.90;;;;;;5095103;28;20218;-70
2022/07/18 04:37:51;;;;;;;3.80;2.88;;;13.40;99.90;;;;;;5095095;28;20161;-69
2022/07/18 04:40:17;;;;;;;4.22;2.90;;;13.40;99.90;;;;;;5094786;28;20173;-70
2022/07/18 04:42:44;;;;;;;6.18;3.15;;;13.50;99.90;;;;;;5095264;28;20161;-70
2022/07/18 04:45:10;;;;;;;4.18;2.90;;;13.40;99.90;;;;;;5093165;28;20630;-70
2022/07/18 04:47:35;;;;;;;8.32;4.20;;;13.50;99.90;;;;;;5095277;28;20170;-72
2022/07/18 04:50:02;;;;;;;3.58;3.00;;;13.50;99.90;;;;;;5110228;28;20184;-71
2022/07/18 04:52:36;;;;;;;5.47;3.13;;;13.60;99.90;;;;;;5116238;28;20683;-71
2022/07/18 04:55:02;;;;;;;5.13;3.00;;;13.60;99.90;;;;;;5115913;28;20261;-71
2022/07/18 04:57:28;;;;;;;7.38;3.05;;;13.70;99.90;;;;;;5115883;27;20633;-71
2022/07/18 04:59:53;;;;;;;5.97;3.22;;;13.80;99.90;;;;;;5115472;28;20180;-74
2022/07/18 05:02:19;;;;;;;6.88;3.65;;;13.90;99.90;;;;;;5115035;28;20329;-71
2022/07/18 05:04:45;;;;;;;7.32;3.70;;;14.00;99.90;;;;;;5114883;28;20169;-72
2022/07/18 05:07:10;;;;;;;8.35;3.25;;;14.10;99.90;;;;;;5114487;28;20603;-72
2022/07/18 05:09:36;;;;;;;4.80;3.70;;;14.10;99.90;;;;;;5114287;28;20539;-72
2022/07/18 05:12:02;;;;;;;6.22;3.65;;;14.20;99.90;;;;;;5114308;28;20228;-72
2022/07/18 05:14:28;;;;;;;5.57;3.08;;;14.20;99.90;;;;;;5113944;28;20287;-72
2022/07/18 05:16:53;;;;;;;3.67;2.83;;;14.30;99.90;;;;;;5114239;28;20539;-72
2022/07/18 05:19:19;;;;;;;5.65;3.20;;;14.30;99.90;;;;;;5105711;28;20189;-72
2022/07/18 05:21:45;;;;;;;5.30;3.58;;;14.40;99.90;;;;;;5093749;28;20242;-72
2022/07/18 05:24:11;;;;;;;3.40;2.75;;;14.50;99.90;;;;;;5094231;28;20544;-72
2022/07/18 05:26:37;;;;;;;4.55;3.13;;;14.50;99.90;;;;;;5094040;28;20203;-72
2022/07/18 05:29:03;;;;;;;3.78;2.85;;;14.60;99.90;;;;;;5093507;28;20633;-72
2022/07/18 05:31:29;;;;;;;4.47;2.92;;;14.70;99.90;;;;;;5092770;28;20201;-72
2022/07/18 05:33:55;;;;;;;6.15;3.08;;;14.70;99.90;;;;;;5093640;28;20321;-72
2022/07/18 05:36:21;;;;;;;3.40;3.10;;;14.80;99.90;;;;;;5093560;28;20180;-72
2022/07/18 05:38:46;;;;;;;4.82;2.95;;;14.90;99.90;;;;;;5093551;28;20629;-72
2022/07/18 05:41:12;;;;;;;3.63;3.10;;;15.00;99.90;;;;;;5093477;28;20591;-72
2022/07/18 05:43:38;;;;;;;7.20;3.40;;;15.10;99.90;;;;;;5093301;28;20234;-72
2022/07/18 05:46:04;;;;;;;4.10;3.10;;;15.10;99.90;;;;;;5093468;28;20184;-72
2022/07/18 05:48:30;;;;;;;4.15;2.95;;;15.10;99.90;;;;;;5092160;28;20234;-72
2022/07/18 05:50:56;;;;;;;3.15;2.80;;;15.20;99.90;;;;;;5093507;28;20193;-72
2022/07/18 05:53:21;;;;;;;3.65;3.00;;;15.30;99.90;;;;;;5093340;28;20193;-72
2022/07/18 05:55:47;;;;;;;5.05;3.22;;;15.30;99.90;;;;;;5093515;28;20180;-73
2022/07/18 05:58:13;;;;;;;5.07;2.83;;;15.40;99.90;;;;;;5091818;28;20220;-72
2022/07/18 06:00:39;;;;;;;3.88;2.90;;;15.50;99.90;;;;;;5093340;28;20193;-72
2022/07/18 06:03:04;;;;;;;3.78;2.92;;;15.50;99.90;;;;;;5093904;28;20177;-73
2022/07/18 06:05:30;;;;;;;4.70;2.70;;;15.70;99.90;;;;;;5092127;28;20173;-72
2022/07/18 06:07:56;;;;;;;6.03;2.80;;;15.80;99.90;;;;;;5093647;28;20180;-73
2022/07/18 06:10:27;;;;;;;7.05;2.58;;;15.90;99.90;;;;;;5093254;28;20537;-73
2022/07/18 06:12:53;;;;;;;2.90;2.33;;;16.00;99.90;;;;;;5091938;28;20166;-73
2022/07/18 06:15:19;;;;;;;4.63;2.90;;;16.10;99.90;;;;;;5093183;28;20661;-72
2022/07/18 06:17:45;;;;;;;7.13;2.95;;;16.20;99.90;;;;;;5093238;28;20189;-72
2022/07/18 06:20:11;;;;;;;6.07;2.97;;;16.30;99.90;;;;;;5093238;28;20188;-72
2022/07/18 06:22:37;;;;;;;5.47;2.78;;;16.30;99.90;;;;;;5097888;28;20242;-73
2022/07/18 06:25:03;;;;;;;4.97;2.67;;;16.40;99.90;;;;;;5100029;28;20681;-71
2022/07/18 06:27:29;;;;;;;4.00;2.65;;;16.40;99.90;;;;;;5097319;28;20181;-73
2022/07/18 06:29:55;;;;;;;5.15;3.08;;;16.50;99.90;;;;;;5096735;28;20203;-73
2022/07/18 06:32:21;;;;;;;3.22;2.65;;;16.60;99.90;;;;;;5096036;28;20208;-73
2022/07/18 06:34:46;;;;;;;3.55;2.53;;;16.80;99.90;;;;;;5097336;28;20197;-73
2022/07/18 06:37:12;;;;;;;4.18;2.72;;;16.90;99.90;;;;;;5095728;28;20169;-71
2022/07/18 06:39:38;;;;;;;4.45;2.65;;;17.00;99.90;;;;;;5096862;28;20517;-71
2022/07/18 06:42:04;;;;;;;5.05;2.50;;;17.10;99.90;;;;;;5096742;28;20295;-71
2022/07/18 06:44:29;;;;;;;5.38;2.55;;;17.30;99.90;;;;;;5096577;28;20176;-71
2022/07/18 06:46:57;;;;;;;2.70;2.40;;;17.40;99.90;;;;;;5095504;28;20200;-71
2022/07/18 06:49:25;;;;;;;3.83;2.40;;;17.50;99.90;;;;;;5096600;28;20177;-71
2022/07/18 06:51:51;;;;;;;3.83;2.67;;;17.70;99.90;;;;;;5096858;28;20730;-71
2022/07/18 06:54:16;;;;;;;3.20;2.40;;;17.80;99.90;;;;;;5095087;28;20201;-71
2022/07/18 06:56:42;;;;;;;4.60;2.40;;;17.90;99.90;;;;;;5096797;28;20169;-71
2022/07/18 06:59:08;;;;;;;5.20;2.60;;;18.10;99.90;;;;;;5094924;28;20587;-71
2022/07/18 07:01:34;;;;;;;5.70;2.72;;;18.20;99.90;;;;;;5096282;28;20191;-71
2022/07/18 07:04:00;;;;;;;3.33;2.42;;;18.30;99.90;;;;;;5096594;28;20205;-71
2022/07/18 07:06:25;;;;;;;4.10;2.15;;;18.40;99.90;;;;;;5096366;28;20177;-71
2022/07/18 07:08:51;;;;;;;4.78;2.80;;;18.50;99.90;;;;;;5096172;28;20177;-71
2022/07/18 07:11:17;;;;;;;9.63;2.70;;;18.60;99.90;;;;;;5096047;28;20599;-71
2022/07/18 07:13:42;;;;;;;3.78;2.30;;;18.80;99.90;;;;;;5095927;28;20201;-71
2022/07/18 07:16:08;;;;;;;3.22;2.33;;;18.90;99.90;;;;;;5094800;28;20174;-71
2022/07/18 07:18:34;;;;;;;3.67;2.30;;;19.10;99.90;;;;;;5095888;28;20185;-71
2022/07/18 07:21:00;;;;;;;2.30;2.10;;;19.20;99.90;;;;;;5096086;28;20238;-71
2022/07/18 07:23:26;;;;;;;5.28;2.22;;;19.30;99.90;;;;;;5095987;28;20200;-71
2022/07/18 07:25:52;;;;;;;5.25;2.25;;;19.40;99.90;;;;;;5095921;28;20239;-71
2022/07/18 07:28:18;;;;;;;4.38;2.45;;;19.50;99.90;;;;;;5095950;28;20650;-71
2022/07/18 07:30:44;;;;;;;6.20;2.47;;;19.60;99.90;;;;;;5095483;28;20214;-71
2022/07/18 07:33:10;;;;;;;6.22;2.50;;;19.70;99.90;;;;;;5095026;28;20507;-71
2022/07/18 07:35:36;;;;;;;5.82;2.55;;;19.90;99.90;;;;;;5095735;28;20175;-71
2022/07/18 07:38:02;;;;;;;2.88;2.15;;;20.00;99.90;;;;;;5095640;28;20602;-71
2022/07/18 07:40:29;;;;;;;6.05;2.90;;;20.10;99.90;;;;;;5096643;28;20212;-71
2022/07/18 07:43:11;;;;;;;3.83;2.30;;;20.30;99.90;;;;;;5095664;28;20248;-71
2022/07/18 07:45:38;;;;;;;6.00;2.30;;;20.50;99.90;;;;;;5095699;28;20162;-72
2022/07/18 07:48:04;;;;;;;4.93;2.20;;;20.60;99.90;;;;;;5094358;28;20231;-73
2022/07/18 07:50:30;;;;;;;3.85;1.98;;;20.80;99.90;;;;;;5095556;28;20223;-73
2022/07/18 07:52:57;;;;;;;4.63;2.00;;;20.90;99.90;;;;;;5095392;28;20169;-73
2022/07/18 07:55:23;;;;;;;2.50;1.73;;;20.90;99.90;;;;;;5094155;28;20188;-73
2022/07/18 07:57:48;;;;;;;1.90;1.80;;;21.00;99.90;;;;;;5095450;28;20260;-73
2022/07/18 08:00:15;;;;;;;3.65;2.00;;;21.20;99.90;;;;;;5095110;28;20184;-72
2022/07/18 08:02:51;;;;;;;2.35;1.85;;;21.30;99.90;;;;;;5095369;28;20196;-73
2022/07/18 08:05:18;;;;;;;4.85;1.77;;;21.40;99.90;;;;;;5095509;28;20235;-73
2022/07/18 08:07:44;;;;;;;5.55;2.15;;;21.60;99.90;;;;;;5095120;28;20239;-73
2022/07/18 08:10:09;;;;;;;4.85;1.77;;;21.90;99.90;;;;;;5094985;28;20194;-72
2022/07/18 08:12:35;;;;;;;4.70;1.83;;;22.10;99.90;;;;;;5095226;28;20177;-73
2022/07/18 08:15:01;;;;;;;7.15;1.92;;;22.20;99.90;;;;;;5094908;28;20204;-73
2022/07/18 08:17:26;;;;;;;3.13;1.90;;;22.40;99.90;;;;;;5093615;28;20220;-73
2022/07/18 08:19:52;;;;;;;4.57;2.33;;;22.80;99.90;;;;;;5093569;28;20209;-73
2022/07/18 08:22:18;;;;;;;4.82;2.10;;;23.00;99.90;;;;;;5094858;28;20213;-73
2022/07/18 08:24:44;;;;;;;4.40;1.90;;;23.10;99.90;;;;;;5094873;28;20249;-73
2022/07/18 08:27:11;;;;;;;3.70;1.85;;;23.40;99.90;;;;;;5094676;28;20699;-73
2022/07/18 08:29:36;;;;;;;2.55;1.92;;;23.60;99.90;;;;;;5094408;28;20174;-73
2022/07/18 08:32:02;;;;;;;4.32;2.20;;;23.80;99.90;;;;;;5094584;28;20271;-73
2022/07/18 08:34:28;;;;;;;3.97;1.80;;;24.00;99.90;;;;;;5094440;28;20236;-73
2022/07/18 08:36:54;;;;;;;3.50;2.03;;;24.10;99.90;;;;;;5095065;28;20170;-73
2022/07/18 08:39:19;;;;;;;2.92;1.80;;;24.20;99.90;;;;;;5095215;28;20531;-73
2022/07/18 08:41:49;;;;;;;5.38;1.67;;;24.30;99.90;;;;;;5097651;28;20197;-73
2022/07/18 08:44:15;;;;;;;6.50;1.92;;;24.40;99.90;;;;;;5098056;28;20177;-72
2022/07/18 08:46:48;;;;;;;3.17;2.22;;;24.50;99.90;;;;;;5100635;28;20215;-73
2022/07/18 08:49:14;;;;;;;4.25;1.52;;;24.60;99.90;;;;;;5096566;28;20211;-72
2022/07/18 08:51:42;;;;;;;4.25;1.67;;;24.90;99.90;;;;;;5095109;28;20195;-73
2022/07/18 08:54:09;;;;;;;3.40;1.40;;;25.10;99.90;;;;;;5094867;28;20287;-73
2022/07/18 08:56:35;;;;;;;3.50;1.70;;;25.20;99.90;;;;;;5095502;28;20538;-73
2022/07/18 08:59:04;;;;;;;5.90;2.15;;;25.40;99.90;;;;;;5094108;28;20173;-72
2022/07/18 09:01:31;;;;;;;3.67;1.73;;;25.60;99.90;;;;;;5093138;28;20612;-73
2022/07/18 09:04:16;;;;;;;2.25;1.38;;;25.80;99.90;;;;;;5094711;28;20324;-73
2022/07/18 09:06:47;;;;;;;4.80;1.75;;;26.00;99.90;;;;;;5094468;28;20200;-73
2022/07/18 09:09:15;;;;;;;3.63;1.50;;;26.30;99.90;;;;;;5094373;28;20154;-73
2022/07/18 09:12:03;;;;;;;2.80;1.60;;;26.60;99.90;;;;;;5092663;28;20689;-73
2022/07/18 09:14:38;;;;;;;2.80;1.58;;;26.80;99.90;;;;;;5094467;28;20586;-73
2022/07/18 09:17:07;;;;;;;2.08;1.60;;;27.00;99.90;;;;;;5092635;28;20161;-73
2022/07/18 09:19:33;;;;;;;2.25;1.88;;;27.30;99.90;;;;;;5092553;28;20195;-73
2022/07/18 09:22:14;;;;;;;1.88;1.35;;;27.40;99.90;;;;;;5093714;28;20723;-73
2022/07/18 09:25:01;;;;;;;3.25;1.60;;;27.60;99.90;;;;;;5094342;28;20187;-73
2022/07/18 09:27:51;;;;;;;2.83;1.67;;;27.70;98.20;;;;;;5093836;28;20197;-73
2022/07/18 09:30:28;;;;;;;3.40;1.67;;;27.80;99.90;;;;;;5093516;28;20622;-73
2022/07/18 09:33:02;;;;;;;4.85;1.73;;;27.90;99.90;;;;;;5093734;28;20625;-73
2022/07/18 09:35:32;;;;;;;3.83;1.67;;;28.10;99.90;;;;;;5093645;28;20259;-73
2022/07/18 09:38:04;;;;;;;2.50;1.60;;;28.20;99.40;;;;;;5094104;28;20199;-73
2022/07/18 09:40:38;;;;;;;2.78;1.70;;;28.30;98.50;;;;;;5093752;28;20189;-73
2022/07/18 09:43:06;;;;;;;3.58;1.42;;;28.50;98.70;;;;;;5093945;28;20152;-73
2022/07/18 09:45:56;;;;;;;4.68;2.17;;;28.60;97.20;;;;;;5093387;28;20245;-73
2022/07/18 09:48:26;;;;;;;4.60;2.00;;;28.70;96.30;;;;;;5094110;28;20582;-72
2022/07/18 09:51:00;;;;;;;5.75;1.83;;;28.80;96.10;;;;;;5093586;28;20189;-73
2022/07/18 09:53:30;;;;;;;3.15;1.77;;;28.90;95.60;;;;;;5093707;28;20192;-71
2022/07/18 09:55:58;;;;;;;2.60;1.60;;;29.00;92.50;;;;;;5094139;28;20169;-71
2022/07/18 09:58:29;;;;;;;3.17;1.70;;;29.10;93.60;;;;;;5097833;28;20639;-71
2022/07/18 10:00:57;;;;;;;2.53;1.55;;;29.30;94.70;;;;;;5097423;28;20196;-71
2022/07/18 10:03:24;;;;;;;3.70;1.90;;;29.30;95.60;;;;;;5096388;28;20177;-70
2022/07/18 10:05:52;;;;;;;3.78;2.30;;;29.40;93.70;;;;;;5097864;28;20173;-71
2022/07/18 10:08:20;;;;;;;3.80;2.30;;;29.30;92.40;;;;;;5097594;28;20177;-71
2022/07/18 10:10:48;;;;;;;2.42;1.38;;;29.30;93.40;;;;;;5097429;28;20200;-71
2022/07/18 10:13:15;;;;;;;2.50;1.85;;;29.40;93.30;;;;;;5097803;28;20173;-71
2022/07/18 10:15:43;;;;;;;2.45;1.80;;;29.50;94.10;;;;;;5096274;28;20173;-71
2022/07/18 10:18:18;;;;;;;3.53;2.10;;;29.60;93.40;;;;;;5096346;28;20192;-71
2022/07/18 10:20:47;;;;;;;3.38;1.92;;;29.60;92.60;;;;;;5096640;28;20283;-71
2022/07/18 10:23:26;;;;;;;2.90;1.75;;;29.70;91.70;;;;;;5096214;28;20177;-71
2022/07/18 10:26:07;;;;;;;3.08;1.70;;;29.70;91.50;;;;;;5097694;28;20673;-71
2022/07/18 10:28:33;;;;;;;2.83;1.95;;;29.80;92.40;;;;;;5097080;28;20192;-71
2022/07/18 10:31:16;;;;;;;2.28;1.80;;;29.90;91.20;;;;;;5097184;28;20189;-73
2022/07/18 10:33:46;;;;;;;3.70;1.80;;;30.00;91.40;;;;;;5097198;28;20204;-73
2022/07/18 10:36:31;;;;;;;3.60;1.73;;;30.00;91.00;;;;;;5097141;28;20158;-73
2022/07/18 10:39:07;;;;;;;4.70;2.03;;;30.00;90.00;;;;;;5097425;28;20168;-73
2022/07/18 10:41:54;;;;;;;3.40;1.90;;;30.00;89.50;;;;;;5097495;28;20188;-73
2022/07/18 10:44:29;;;;;;;5.00;2.10;;;30.10;89.90;;;;;;5089948;28;20284;-72
2022/07/18 10:47:06;;;;;;;2.85;1.80;;;30.10;88.60;;;;;;5097219;28;20211;-72
2022/07/18 10:49:49;;;;;;;2.63;1.90;;;30.20;89.80;;;;;;5096859;28;20185;-72
2022/07/18 10:52:33;;;;;;;4.55;1.95;;;30.10;84.00;;;;;;5096757;28;20200;-74
2022/07/18 10:55:17;;;;;;;2.47;1.70;;;30.20;90.00;;;;;;5095600;28;20586;-73
2022/07/18 10:58:06;;;;;;;3.22;1.70;;;30.30;89.00;;;;;;5097517;28;20153;-73
2022/07/18 11:00:36;;;;;;;4.40;2.15;;;30.30;84.60;;;;;;5096376;28;20197;-73
2022/07/18 11:03:08;;;;;;;6.60;1.90;;;30.40;84.00;;;;;;5096861;28;20173;-74
2022/07/18 11:05:36;;;;;;;5.03;1.92;;;30.30;84.60;;;;;;5096571;28;20242;-74
2022/07/18 11:08:02;;;;;;;3.13;1.90;;;30.10;84.00;;;;;;5095009;28;20210;-74
2022/07/18 11:10:44;;;;;;;3.50;2.00;;;30.20;87.10;;;;;;5096913;28;20291;-74
2022/07/18 11:13:57;;;;;;;4.65;2.22;;;30.30;84.30;;;;;;5095211;28;20177;-74
2022/07/18 11:16:25;;;;;;;2.53;1.58;;;30.40;83.00;;;;;;5096153;28;20177;-74
2022/07/18 11:18:51;;;;;;;2.25;1.88;;;30.50;83.50;;;;;;5096414;28;20286;-73
2022/07/18 11:21:30;;;;;;;4.18;2.30;;;30.70;88.50;;;;;;5096276;28;20188;-74
2022/07/18 11:24:08;;;;;;;3.17;2.00;;;30.80;81.00;;;;;;5097118;28;20173;-73
2022/07/18 11:26:35;;;;;;;3.45;2.22;;;30.80;79.80;;;;;;5095050;28;20254;-73
2022/07/18 11:29:03;;;;;;;2.42;1.85;;;30.90;84.50;;;;;;5095081;28;20194;-74
2022/07/18 11:31:30;;;;;;;4.03;2.10;;;31.10;84.20;;;;;;5095760;28;20208;-74
2022/07/18 11:33:58;;;;;;;4.40;2.03;;;31.30;86.50;;;;;;5095912;28;20197;-74
2022/07/18 11:36:32;;;;;;;7.07;2.10;;;31.60;87.00;;;;;;5096013;28;20177;-74
2022/07/18 11:38:59;;;;;;;4.30;2.10;;;31.50;80.20;;;;;;5096323;28;20161;-74
2022/07/18 11:41:26;;;;;;;2.95;1.80;;;31.70;79.60;;;;;;5095916;28;20582;-74
2022/07/18 11:43:53;;;;;;;2.85;1.98;;;31.80;77.90;;;;;;5095773;28;20188;-73
2022/07/18 11:46:26;;;;;;;4.72;2.20;;;31.80;77.30;;;;;;5095543;28;20196;-74
2022/07/18 11:49:04;;;;;;;2.50;1.80;;;31.90;76.90;;;;;;5096118;28;20259;-71
2022/07/18 11:51:49;;;;;;;1.58;1.48;;;31.90;80.40;;;;;;5095638;28;20554;-71
2022/07/18 11:54:23;;;;;;;6.72;2.20;;;32.10;81.60;;;;;;5095611;28;20189;-72
2022/07/18 11:56:52;;;;;;;2.15;1.85;;;32.20;77.10;;;;;;5095726;28;20154;-71
2022/07/18 11:59:17;;;;;;;7.00;2.15;;;32.30;78.40;;;;;;5095707;28;20169;-73
2022/07/18 12:01:44;;;;;;;4.32;1.98;;;32.50;77.90;;;;;;5095102;28;20185;-73
2022/07/18 12:04:21;;;;;;;5.03;1.90;;;32.60;79.60;;;;;;5095686;28;20598;-73
2022/07/18 12:07:18;;;;;;;2.60;1.70;;;32.70;78.10;;;;;;5094381;28;20663;-73
2022/07/18 12:09:45;;;;;;;8.43;2.30;;;33.00;77.20;;;;;;5095528;28;20158;-73
2022/07/18 12:12:12;;;;;;;3.47;1.70;;;33.10;77.10;;;;;;5095187;28;20205;-73
2022/07/18 12:14:38;;;;;;;5.38;2.88;;;33.20;78.60;;;;;;5094891;28;20193;-71
2022/07/18 12:17:05;;;;;;;3.47;1.77;;;33.20;74.00;;;;;;5093802;28;20192;-73
2022/07/18 12:19:39;;;;;;;3.42;2.08;;;33.20;76.30;;;;;;5094401;28;20632;-73
2022/07/18 12:22:10;;;;;;;2.70;1.70;;;33.40;74.30;;;;;;5094850;28;20198;-73
2022/07/18 12:24:54;;;;;;;4.03;2.10;;;33.50;75.70;;;;;;5094940;28;20650;-73
2022/07/18 12:27:33;;;;;;;2.72;1.70;;;33.90;77.30;;;;;;5095364;28;20169;-73
2022/07/18 12:30:07;;;;;;;6.25;1.88;;;34.00;75.80;;;;;;5094666;28;20564;-73
2022/07/18 12:32:36;;;;;;;2.75;1.90;;;34.00;72.10;;;;;;5094807;28;20196;-72
2022/07/18 12:35:05;;;;;;;4.15;1.70;;;34.10;72.60;;;;;;5094527;28;20284;-73
2022/07/18 12:37:31;;;;;;;3.65;1.75;;;34.00;72.80;;;;;;5094783;28;20222;-73
2022/07/18 12:39:58;;;;;;;2.85;1.98;;;33.90;67.80;;;;;;5095098;28;20174;-73
2022/07/18 12:42:30;;;;;;;4.25;1.80;;;34.00;70.20;;;;;;5094490;28;20185;-73
2022/07/18 12:44:55;;;;;;;3.78;2.13;;;34.00;68.90;;;;;;5093101;28;20204;-73
2022/07/18 12:47:21;;;;;;;2.55;1.90;;;34.00;70.60;;;;;;5094501;28;20176;-73
2022/07/18 12:49:47;;;;;;;5.05;1.80;;;34.20;72.30;;;;;;5094299;28;20193;-73
2022/07/18 12:52:13;;;;;;;2.10;1.77;;;34.30;68.10;;;;;;5094274;28;20196;-73
2022/07/18 12:54:38;;;;;;;4.40;1.67;;;34.10;68.30;;;;;;5094245;28;20200;-73
2022/07/18 12:57:04;;;;;;;3.33;1.55;;;34.20;66.90;;;;;;5094361;28;20583;-73